logo tempoitalia

Diretta Meteo Doha, Qatarlunedì 31 agosto ore 08:00

Mappa
Sereno 36 °C Sereno 24 Ore: T.min 33 T.max 46
Ponente Sud/Sud-Ovest Km/h 16.7 Punto di rugiada: 28 °C Umidità: 63% Visibilità: 6 Km
Il sole sorge alle: 05:13 Il sole tramonta alle: 17:54
31 Agosto 2026 08:00 tempo osservato: Sereno Sereno 36 63 1001 vento: Nord S/SO 16.7
31 Agosto 2026 07:30 tempo osservato: Sereno Sereno 35 67 1001 vento: Nord S/SO 13
31 Agosto 2026 07:00 tempo osservato: Sereno Sereno 35 59 1001 vento: Nord S/SO 11.1
31 Agosto 2026 06:30 tempo osservato: Sereno Sereno 34 67 1001 vento: Nord S 11.1
31 Agosto 2026 06:00 tempo osservato: Sereno Sereno 34 67 1001 vento: Nord S 7.4
31 Agosto 2026 05:30 tempo osservato: Sereno Sereno 34 63 1000 vento: Nord S/SO 13
31 Agosto 2026 05:00 tempo osservato: Sereno Sereno 34 63 1000 vento: Nord S 9.3
31 Agosto 2026 04:30 tempo osservato: Sereno Sereno 33 62 1000 vento: Nord N 0
31 Agosto 2026 04:00 tempo osservato: Sereno Sereno 34 63 1000 vento: Nord N 5.5
31 Agosto 2026 03:30 tempo osservato: Sereno Sereno 33 66 1000 vento: Nord E/NE 7.4
31 Agosto 2026 03:00 tempo osservato: Sereno Sereno 34 59 1000 vento: Nord N 5.5
31 Agosto 2026 02:30 tempo osservato: Sereno Sereno 34 63 1000 vento: Nord N 3.7
31 Agosto 2026 02:00 tempo osservato: Sereno Sereno 36 53 1000 vento: Nord N 3.7
31 Agosto 2026 01:30 tempo osservato: Sereno Sereno 35 59 1000 vento: Nord N 5.5
31 Agosto 2026 01:00 tempo osservato: Sereno Sereno 35 59 1000 vento: Nord N 3.7
31 Agosto 2026 00:30 tempo osservato: Sereno Sereno 35 59 1000 vento: Nord N 3.7
31 Agosto 2026 00:00 tempo osservato: Sereno Sereno 35 63 1000 vento: Nord N 0
30 Agosto 2026 23:30 tempo osservato: Sereno Sereno 35 67 1001 vento: Nord N 3.7
30 Agosto 2026 23:00 tempo osservato: Sereno Sereno 35 67 1000 vento: Nord N 0
30 Agosto 2026 22:30 tempo osservato: Sereno Sereno 35 67 1001 vento: Nord N 0
30 Agosto 2026 22:00 tempo osservato: Sereno Sereno 36 63 1001 vento: Nord N 3.7
30 Agosto 2026 21:30 tempo osservato: Sereno Sereno 35 71 1001 vento: Nord N 3.7
30 Agosto 2026 21:00 tempo osservato: Sereno Sereno 36 63 1001 vento: Nord N 3.7
30 Agosto 2026 20:30 tempo osservato: Sereno Sereno 36 56 1001 vento: Nord E 7.4
30 Agosto 2026 20:00 tempo osservato: Sereno Sereno 36 67 1001 vento: Nord NE 9.3
30 Agosto 2026 19:30 tempo osservato: Sereno Sereno 36 67 1000 vento: Nord NE 11.1
30 Agosto 2026 19:00 tempo osservato: Sereno Sereno 36 67 1000 vento: Nord NE 16.7
30 Agosto 2026 18:30 tempo osservato: Sereno Sereno 36 71 1000 vento: Nord N/NE 20.3
30 Agosto 2026 18:00 tempo osservato: Sereno Sereno 38 60 1000 vento: Nord N/NE 20.3
30 Agosto 2026 17:30 tempo osservato: Sereno Sereno 42 28 999 vento: Nord SE 13
30 Agosto 2026 17:00 tempo osservato: Sereno Sereno 41 36 999 vento: Nord SE 13
30 Agosto 2026 16:30 tempo osservato: Sereno Sereno 42 25 999 vento: Nord SE 16.7
30 Agosto 2026 16:00 tempo osservato: Sereno Sereno 43 22 999 vento: Nord E/SE 18.5
30 Agosto 2026 15:30 tempo osservato: Sereno Sereno 44 12 999 vento: Nord E/SE 22.2
30 Agosto 2026 15:00 tempo osservato: Sereno Sereno 46 15 999 vento: Nord N 11.1
30 Agosto 2026 14:30 tempo osservato: Sereno Sereno 46 8 999 vento: Nord S/SE 11.1
30 Agosto 2026 14:00 tempo osservato: Sereno Sereno 46 8 999 vento: Nord SE 11.1
30 Agosto 2026 13:30 tempo osservato: Sereno Sereno 46 9 1000 vento: Nord S 13
30 Agosto 2026 13:00 tempo osservato: Sereno Sereno 45 11 1000 vento: Nord S 14.8
30 Agosto 2026 12:30 tempo osservato: Sereno Sereno 45 13 1000 vento: Nord S 13
30 Agosto 2026 12:00 tempo osservato: Sereno Sereno 43 19 1001 vento: Nord S/SE 13
30 Agosto 2026 11:30 tempo osservato: Sereno Sereno 42 28 1001 vento: Nord S 16.7
30 Agosto 2026 11:00 tempo osservato: Sereno Sereno 41 36 1001 vento: Nord S/SE 16.7
30 Agosto 2026 10:30 tempo osservato: Sereno Sereno 40 42 1002 vento: Nord S 14.8
30 Agosto 2026 10:00 tempo osservato: Sereno Sereno 40 38 1002 vento: Nord S 14.8
30 Agosto 2026 09:30 tempo osservato: Sereno Sereno 39 42 1002 vento: Nord S 16.7
30 Agosto 2026 09:00 tempo osservato: Sereno Sereno 39 45 1002 vento: Nord S 16.7